Time;durP1;ratioP1;P1;durP2;ratioP2;P2;SDS_P1;SDS_P2;PMS_P1;PMS_P2;Temp;Humidity;BMP_temperature;BMP_pressure;BME280_temperature;BME280_humidity;BME280_pressure;Samples;Min_cycle;Max_cycle;Signal;HPM_P1;HPM_P2
2023/05/19 00:01:47;;;;;;;11.93;2.88;;;;;;;;;;5083117;28;20242;-70
2023/05/19 00:04:14;;;;;;;6.63;2.90;;;;;;;;;;5084458;28;20251;-70
2023/05/19 00:06:41;;;;;;;4.82;2.47;;;;;;;;;;5084659;28;20399;-70
2023/05/19 00:09:09;;;;;;;3.97;2.50;;;;;;;;;;5084543;28;20504;-70
2023/05/19 00:11:37;;;;;;;7.03;2.78;;;;;;;;;;5084304;28;20414;-70
2023/05/19 00:14:04;;;;;;;6.10;2.70;;;;;;;;;;5084357;28;20397;-70
2023/05/19 00:16:30;;;;;;;4.05;2.17;;;;;;;;;;5084310;28;20260;-70
2023/05/19 00:18:58;;;;;;;6.68;2.75;;;;;;;;;;5084107;28;20200;-70
2023/05/19 00:21:25;;;;;;;3.15;2.28;;;;;;;;;;5083892;28;20210;-70
2023/05/19 00:23:51;;;;;;;4.50;2.40;;;;;;;;;;5084236;28;20200;-70
2023/05/19 00:26:18;;;;;;;4.82;2.58;;;;;;;;;;5084195;28;20192;-70
2023/05/19 00:28:45;;;;;;;5.25;2.50;;;;;;;;;;5083975;28;20224;-70
2023/05/19 00:31:11;;;;;;;5.68;2.55;;;;;;;;;;5084027;28;20492;-70
2023/05/19 00:33:37;;;;;;;6.57;2.78;;;;;;;;;;5083762;28;20426;-70
2023/05/19 00:36:04;;;;;;;4.60;2.50;;;;;;;;;;5084085;28;20216;-70
2023/05/19 00:38:30;;;;;;;4.65;2.60;;;;;;;;;;5083936;28;20514;-70
2023/05/19 00:40:57;;;;;;;3.55;2.45;;;;;;;;;;5083743;28;20206;-70
2023/05/19 00:43:24;;;;;;;4.68;2.85;;;;;;;;;;5083707;28;20392;-70
2023/05/19 00:45:51;;;;;;;5.15;2.80;;;;;;;;;;5083696;28;20192;-70
2023/05/19 00:48:17;;;;;;;4.93;2.78;;;;;;;;;;5083510;28;20197;-70
2023/05/19 00:50:44;;;;;;;4.53;2.55;;;;;;;;;;5083692;28;20204;-70
2023/05/19 00:53:10;;;;;;;2.97;2.58;;;;;;;;;;5083464;28;20196;-70
2023/05/19 00:55:39;;;;;;;4.07;2.85;;;;;;;;;;5083417;28;20220;-70
2023/05/19 00:58:06;;;;;;;4.65;2.42;;;;;;;;;;5083479;28;20228;-70
2023/05/19 01:00:33;;;;;;;3.70;2.30;;;;;;;;;;5083436;28;20196;-70
2023/05/19 01:03:00;;;;;;;4.35;2.53;;;;;;;;;;5083108;28;20496;-70
2023/05/19 01:05:26;;;;;;;4.68;2.40;;;;;;;;;;5083293;28;20459;-70
2023/05/19 01:07:55;;;;;;;5.72;2.33;;;;;;;;;;5083218;28;20196;-70
2023/05/19 01:10:21;;;;;;;3.55;2.15;;;;;;;;;;5083187;28;20196;-70
2023/05/19 01:12:47;;;;;;;3.05;2.40;;;;;;;;;;5082692;28;20208;-70
2023/05/19 01:15:14;;;;;;;5.43;2.63;;;;;;;;;;5082870;28;20224;-70
2023/05/19 01:17:45;;;;;;;5.50;2.38;;;;;;;;;;5083205;28;20394;-70
2023/05/19 01:20:17;;;;;;;5.38;2.38;;;;;;;;;;5083026;28;20196;-70
2023/05/19 01:22:55;;;;;;;3.67;2.30;;;;;;;;;;5082904;28;20204;-70
2023/05/19 01:25:43;;;;;;;4.47;2.35;;;;;;;;;;5082958;28;20214;-70
2023/05/19 01:28:20;;;;;;;5.70;2.17;;;;;;;;;;5082655;28;20279;-70
2023/05/19 01:30:48;;;;;;;7.38;2.55;;;;;;;;;;5082640;28;20196;-70
2023/05/19 01:33:15;;;;;;;3.47;2.10;;;;;;;;;;5082792;28;20392;-70
2023/05/19 01:35:42;;;;;;;6.57;2.13;;;;;;;;;;5082685;28;20247;-70
2023/05/19 01:38:09;;;;;;;5.95;2.38;;;;;;;;;;5082680;28;20200;-70
2023/05/19 01:40:37;;;;;;;4.72;2.38;;;;;;;;;;5082508;28;20200;-70
2023/05/19 01:43:03;;;;;;;4.60;2.50;;;;;;;;;;5082343;28;20207;-70
2023/05/19 01:45:31;;;;;;;2.63;2.10;;;;;;;;;;5082626;28;20215;-70
2023/05/19 01:47:59;;;;;;;3.90;2.22;;;;;;;;;;5082526;28;20442;-70
2023/05/19 01:50:26;;;;;;;4.38;2.17;;;;;;;;;;5082223;28;20211;-70
2023/05/19 01:52:52;;;;;;;5.20;2.50;;;;;;;;;;5082248;28;20392;-70
2023/05/19 01:55:19;;;;;;;2.42;2.22;;;;;;;;;;5082277;28;20223;-70
2023/05/19 01:57:50;;;;;;;3.13;2.00;;;;;;;;;;5082406;28;20223;-70
2023/05/19 02:00:18;;;;;;;2.58;2.38;;;;;;;;;;5082269;28;20235;-70
2023/05/19 02:02:53;;;;;;;2.53;2.25;;;;;;;;;;5082218;28;20205;-70
2023/05/19 02:05:28;;;;;;;4.80;2.88;;;;;;;;;;5082225;28;20237;-70
2023/05/19 02:07:58;;;;;;;3.28;2.30;;;;;;;;;;5082107;28;20301;-70
2023/05/19 02:10:28;;;;;;;2.15;2.05;;;;;;;;;;5082286;28;20209;-70
2023/05/19 02:12:57;;;;;;;2.78;2.53;;;;;;;;;;5082117;28;20231;-70
2023/05/19 02:15:25;;;;;;;5.60;2.60;;;;;;;;;;5081983;28;20224;-70
2023/05/19 02:17:53;;;;;;;3.58;2.22;;;;;;;;;;5082026;28;20267;-70
2023/05/19 02:20:21;;;;;;;4.10;2.28;;;;;;;;;;5081878;28;20373;-70
2023/05/19 02:22:47;;;;;;;4.20;2.30;;;;;;;;;;5081996;28;20306;-70
2023/05/19 02:25:14;;;;;;;3.33;2.45;;;;;;;;;;5081485;28;20552;-70
2023/05/19 02:27:41;;;;;;;2.40;2.25;;;;;;;;;;5082235;28;20217;-70
2023/05/19 02:30:08;;;;;;;2.80;2.60;;;;;;;;;;5081929;28;20223;-70
2023/05/19 02:32:35;;;;;;;2.70;2.60;;;;;;;;;;5082222;28;20196;-70
2023/05/19 02:35:01;;;;;;;3.05;2.50;;;;;;;;;;5081791;28;20203;-70
2023/05/19 02:37:29;;;;;;;5.28;2.30;;;;;;;;;;5082034;28;20528;-70
2023/05/19 02:39:56;;;;;;;4.82;2.40;;;;;;;;;;5081578;28;20196;-70
2023/05/19 02:42:22;;;;;;;2.85;2.25;;;;;;;;;;5081812;28;20373;-70
2023/05/19 02:44:49;;;;;;;5.78;2.58;;;;;;;;;;5081778;28;20412;-70
2023/05/19 02:47:15;;;;;;;3.03;2.20;;;;;;;;;;5081854;28;20192;-70
2023/05/19 02:49:42;;;;;;;3.05;2.35;;;;;;;;;;5081824;28;20196;-70
2023/05/19 02:52:09;;;;;;;3.67;2.65;;;;;;;;;;5081402;28;20204;-70
2023/05/19 02:54:36;;;;;;;2.78;2.10;;;;;;;;;;5081803;28;20224;-70
2023/05/19 02:57:03;;;;;;;3.72;2.38;;;;;;;;;;5081650;28;20465;-70
2023/05/19 02:59:30;;;;;;;5.07;2.53;;;;;;;;;;5081680;28;20538;-70
2023/05/19 03:01:58;;;;;;;3.65;2.30;;;;;;;;;;5081428;28;20196;-70
2023/05/19 03:04:25;;;;;;;6.18;2.85;;;;;;;;;;5081787;28;20196;-70
2023/05/19 03:06:52;;;;;;;4.85;2.85;;;;;;;;;;5081761;28;20238;-70
2023/05/19 03:09:19;;;;;;;3.25;2.58;;;;;;;;;;5081669;28;20227;-70
2023/05/19 03:11:46;;;;;;;3.78;2.53;;;;;;;;;;5081347;28;20542;-70
2023/05/19 03:14:13;;;;;;;2.53;2.10;;;;;;;;;;5081376;28;20250;-70
2023/05/19 03:16:39;;;;;;;2.90;2.70;;;;;;;;;;5081237;28;20216;-70
2023/05/19 03:19:06;;;;;;;3.00;2.72;;;;;;;;;;5081551;28;20204;-70
2023/05/19 03:21:33;;;;;;;3.88;2.70;;;;;;;;;;5081458;28;20200;-70
2023/05/19 03:23:59;;;;;;;2.80;2.60;;;;;;;;;;5081375;28;20219;-70
2023/05/19 03:26:25;;;;;;;5.38;3.08;;;;;;;;;;5081290;28;20193;-70
2023/05/19 03:28:53;;;;;;;2.60;2.50;;;;;;;;;;5081181;28;20216;-70
2023/05/19 03:31:19;;;;;;;4.82;2.63;;;;;;;;;;5081141;28;20196;-70
2023/05/19 03:33:45;;;;;;;3.53;3.05;;;;;;;;;;5081526;28;20196;-70
2023/05/19 03:36:12;;;;;;;4.45;2.88;;;;;;;;;;5083060;28;20262;-70
2023/05/19 03:38:38;;;;;;;2.90;2.65;;;;;;;;;;5085043;28;20196;-70
2023/05/19 03:41:04;;;;;;;1.95;1.83;;;;;;;;;;5085132;28;20196;-70
2023/05/19 03:43:31;;;;;;;4.38;2.90;;;;;;;;;;5084663;28;20203;-70
2023/05/19 03:45:58;;;;;;;3.00;2.70;;;;;;;;;;5085230;28;20357;-70
2023/05/19 03:48:25;;;;;;;4.38;2.97;;;;;;;;;;5084923;28;20219;-70
2023/05/19 03:50:51;;;;;;;3.25;2.78;;;;;;;;;;5084875;28;20210;-70
2023/05/19 03:53:18;;;;;;;4.10;2.70;;;;;;;;;;5084655;28;20519;-70
2023/05/19 03:55:45;;;;;;;3.75;2.72;;;;;;;;;;5084729;28;20438;-70
2023/05/19 03:58:13;;;;;;;4.82;2.83;;;;;;;;;;5084486;28;20196;-71
2023/05/19 04:00:39;;;;;;;4.97;2.75;;;;;;;;;;5084468;28;20231;-70
2023/05/19 04:03:07;;;;;;;4.10;2.88;;;;;;;;;;5084493;28;20204;-70
2023/05/19 04:05:33;;;;;;;3.42;2.83;;;;;;;;;;5084425;28;20204;-70
2023/05/19 04:07:59;;;;;;;5.47;2.85;;;;;;;;;;5084463;28;20196;-70
2023/05/19 04:10:26;;;;;;;6.25;2.90;;;;;;;;;;5084455;28;20196;-70
2023/05/19 04:12:52;;;;;;;6.60;3.22;;;;;;;;;;5084140;28;20199;-70
2023/05/19 04:15:18;;;;;;;4.55;3.15;;;;;;;;;;5084435;28;20204;-71
2023/05/19 04:17:44;;;;;;;3.15;2.63;;;;;;;;;;5085670;28;20200;-71
2023/05/19 04:20:13;;;;;;;4.90;3.00;;;;;;;;;;5085520;28;20203;-71
2023/05/19 04:22:39;;;;;;;5.22;2.90;;;;;;;;;;5085248;28;20196;-71
2023/05/19 04:25:06;;;;;;;4.53;2.92;;;;;;;;;;5085369;28;20205;-71
2023/05/19 04:27:35;;;;;;;6.80;2.60;;;;;;;;;;5085518;28;20213;-71
2023/05/19 04:30:01;;;;;;;6.28;2.88;;;;;;;;;;5085613;28;20530;-71
2023/05/19 04:32:28;;;;;;;3.53;3.08;;;;;;;;;;5085118;28;20197;-71
2023/05/19 04:34:54;;;;;;;5.20;3.03;;;;;;;;;;5085242;28;20524;-71
2023/05/19 04:37:22;;;;;;;3.67;3.08;;;;;;;;;;5084435;28;20536;-71
2023/05/19 04:39:51;;;;;;;6.20;3.33;;;;;;;;;;5084590;28;20410;-71
2023/05/19 04:42:18;;;;;;;7.70;2.97;;;;;;;;;;5084823;28;20268;-71
2023/05/19 04:44:44;;;;;;;4.18;2.80;;;;;;;;;;5085075;28;20200;-71
2023/05/19 04:47:10;;;;;;;4.45;2.70;;;;;;;;;;5084295;28;20196;-71
2023/05/19 04:49:38;;;;;;;4.70;3.00;;;;;;;;;;5085143;28;20196;-71
2023/05/19 04:52:06;;;;;;;5.93;2.97;;;;;;;;;;5084630;28;20212;-71
2023/05/19 04:54:33;;;;;;;3.70;2.80;;;;;;;;;;5084522;28;20204;-71
2023/05/19 04:57:00;;;;;;;4.80;2.80;;;;;;;;;;5084838;28;20223;-71
2023/05/19 04:59:26;;;;;;;4.30;2.90;;;;;;;;;;5084711;28;20196;-71
2023/05/19 05:01:52;;;;;;;3.95;2.60;;;;;;;;;;5084738;28;20279;-71
2023/05/19 05:04:19;;;;;;;4.03;2.65;;;;;;;;;;5084912;28;20196;-71
2023/05/19 05:06:46;;;;;;;5.53;2.88;;;;;;;;;;5084824;28;20196;-71
2023/05/19 05:09:13;;;;;;;6.43;2.90;;;;;;;;;;5084249;28;20255;-71
2023/05/19 05:11:41;;;;;;;3.67;2.88;;;;;;;;;;5070474;28;20252;-73
2023/05/19 05:14:07;;;;;;;6.03;2.88;;;;;;;;;;5069327;28;20247;-72
2023/05/19 05:16:34;;;;;;;3.95;2.90;;;;;;;;;;5077554;28;20232;-72
2023/05/19 05:19:01;;;;;;;8.07;2.83;;;;;;;;;;5077907;28;20598;-72
2023/05/19 05:21:27;;;;;;;4.70;2.67;;;;;;;;;;5075442;28;20212;-72
2023/05/19 05:23:54;;;;;;;3.15;2.63;;;;;;;;;;5073412;28;20223;-73
2023/05/19 05:26:21;;;;;;;4.43;2.75;;;;;;;;;;5073728;28;20228;-73
2023/05/19 05:28:49;;;;;;;4.28;2.30;;;;;;;;;;5066233;28;20224;-72
2023/05/19 05:31:15;;;;;;;3.78;2.53;;;;;;;;;;5058300;28;20212;-73
2023/05/19 05:33:42;;;;;;;4.68;2.92;;;;;;;;;;5075659;28;20212;-73
2023/05/19 05:36:08;;;;;;;5.65;2.90;;;;;;;;;;5075153;28;20242;-73
2023/05/19 05:38:35;;;;;;;3.85;2.70;;;;;;;;;;5076117;28;20213;-72
2023/05/19 05:41:01;;;;;;;7.57;3.10;;;;;;;;;;5076251;28;20212;-59
2023/05/19 05:43:28;;;;;;;5.00;2.85;;;;;;;;;;5075844;28;20421;-61
2023/05/19 05:45:56;;;;;;;4.85;3.00;;;;;;;;;;5075693;28;20212;-60
2023/05/19 05:48:22;;;;;;;4.03;2.38;;;;;;;;;;5075805;28;20393;-60
2023/05/19 05:50:49;;;;;;;5.78;2.80;;;;;;;;;;5076276;28;20219;-59
2023/05/19 05:53:17;;;;;;;4.47;2.70;;;;;;;;;;5076841;28;20216;-61
2023/05/19 05:55:44;;;;;;;6.95;2.88;;;;;;;;;;5076834;28;20227;-61
2023/05/19 05:58:10;;;;;;;4.68;2.80;;;;;;;;;;5077411;28;20224;-60
2023/05/19 06:00:37;;;;;;;6.50;2.83;;;;;;;;;;5075138;28;20208;-60
2023/05/19 06:03:04;;;;;;;6.97;3.13;;;;;;;;;;5076152;28;20417;-61
2023/05/19 06:05:31;;;;;;;4.18;2.80;;;;;;;;;;5075453;28;20227;-60
2023/05/19 06:07:57;;;;;;;7.00;2.90;;;;;;;;;;5075220;28;20468;-61
2023/05/19 06:10:23;;;;;;;6.03;2.72;;;;;;;;;;5075338;28;20231;-61
2023/05/19 06:12:49;;;;;;;6.03;2.97;;;;;;;;;;5074590;28;20218;-61
2023/05/19 06:15:16;;;;;;;4.25;3.17;;;;;;;;;;5075540;28;20408;-61
2023/05/19 06:17:42;;;;;;;5.05;2.65;;;;;;;;;;5075861;28;20436;-60
2023/05/19 06:20:11;;;;;;;5.35;2.70;;;;;;;;;;5076821;28;20423;-61
2023/05/19 06:22:38;;;;;;;8.65;3.05;;;;;;;;;;5075577;28;20239;-61
2023/05/19 06:25:04;;;;;;;4.25;3.00;;;;;;;;;;5075950;28;20219;-60
2023/05/19 06:27:30;;;;;;;3.63;2.70;;;;;;;;;;5075231;28;20216;-60
2023/05/19 06:29:57;;;;;;;4.22;2.92;;;;;;;;;;5074628;28;20640;-60
2023/05/19 06:32:23;;;;;;;10.88;2.97;;;;;;;;;;5075318;28;20544;-61
2023/05/19 06:34:52;;;;;;;6.55;3.35;;;;;;;;;;5075012;28;20453;-61
2023/05/19 06:37:21;;;;;;;7.68;2.95;;;;;;;;;;5075367;28;20581;-61
2023/05/19 06:39:48;;;;;;;11.10;3.05;;;;;;;;;;5075792;28;20239;-60
2023/05/19 06:42:14;;;;;;;6.70;2.90;;;;;;;;;;5075230;28;20222;-60
2023/05/19 06:44:40;;;;;;;4.50;2.83;;;;;;;;;;5075513;28;20219;-60
2023/05/19 06:47:07;;;;;;;4.70;2.80;;;;;;;;;;5074824;28;20231;-60
2023/05/19 06:49:33;;;;;;;8.27;2.92;;;;;;;;;;5075386;28;20439;-60
2023/05/19 06:51:59;;;;;;;4.25;3.03;;;;;;;;;;5076083;28;20420;-61
2023/05/19 06:54:27;;;;;;;5.80;2.63;;;;;;;;;;5075813;28;20212;-61
2023/05/19 06:56:53;;;;;;;11.15;3.28;;;;;;;;;;5075906;28;20564;-60
2023/05/19 06:59:21;;;;;;;8.60;3.10;;;;;;;;;;5075666;28;20406;-60
2023/05/19 07:01:47;;;;;;;7.80;3.08;;;;;;;;;;5074568;28;20204;-60
2023/05/19 07:04:13;;;;;;;6.95;3.50;;;;;;;;;;5076218;28;20216;-60
2023/05/19 07:06:40;;;;;;;7.65;3.08;;;;;;;;;;5074671;28;20516;-60
2023/05/19 07:09:07;;;;;;;5.68;3.13;;;;;;;;;;5075135;28;20547;-60
2023/05/19 07:11:35;;;;;;;4.38;2.72;;;;;;;;;;5078523;28;20595;-60
2023/05/19 07:14:01;;;;;;;6.53;3.10;;;;;;;;;;5078984;28;20220;-62
2023/05/19 07:16:27;;;;;;;5.28;2.92;;;;;;;;;;5077881;28;20400;-62
2023/05/19 07:18:53;;;;;;;6.20;2.97;;;;;;;;;;5079083;28;20557;-62
2023/05/19 07:21:20;;;;;;;6.68;3.10;;;;;;;;;;5078491;28;20208;-62
2023/05/19 07:23:46;;;;;;;5.30;3.50;;;;;;;;;;5078181;28;20208;-62
2023/05/19 07:26:12;;;;;;;5.30;2.83;;;;;;;;;;5079576;28;20230;-62
2023/05/19 07:28:41;;;;;;;5.28;2.80;;;;;;;;;;5079133;28;20392;-60
2023/05/19 07:31:07;;;;;;;7.43;3.20;;;;;;;;;;5079175;28;20287;-60
2023/05/19 07:33:33;;;;;;;4.00;2.83;;;;;;;;;;5079392;28;20434;-59
2023/05/19 07:36:00;;;;;;;6.15;2.70;;;;;;;;;;5078468;28;20211;-59
2023/05/19 07:38:27;;;;;;;6.80;3.13;;;;;;;;;;5080201;28;20228;-60
2023/05/19 07:40:53;;;;;;;5.75;2.97;;;;;;;;;;5079747;28;20219;-60
2023/05/19 07:43:20;;;;;;;5.90;3.25;;;;;;;;;;5078737;28;20223;-60
2023/05/19 07:45:47;;;;;;;6.13;2.95;;;;;;;;;;5078382;28;20220;-60
2023/05/19 07:48:13;;;;;;;3.15;2.78;;;;;;;;;;5078652;28;20387;-60
2023/05/19 07:50:40;;;;;;;8.77;3.25;;;;;;;;;;5079403;28;21053;-60
2023/05/19 07:53:06;;;;;;;5.75;3.10;;;;;;;;;;5078781;28;20283;-59
2023/05/19 07:55:32;;;;;;;6.45;2.78;;;;;;;;;;5079308;28;20212;-59
2023/05/19 07:57:58;;;;;;;4.88;2.97;;;;;;;;;;5079156;28;20239;-60
2023/05/19 08:00:25;;;;;;;5.57;3.10;;;;;;;;;;5077805;28;20224;-60
2023/05/19 08:02:52;;;;;;;6.47;3.00;;;;;;;;;;5077733;28;20531;-60
2023/05/19 08:05:19;;;;;;;8.00;3.58;;;;;;;;;;5078797;28;20243;-60
2023/05/19 08:07:45;;;;;;;6.53;2.60;;;;;;;;;;5078958;28;20223;-60
2023/05/19 08:10:11;;;;;;;8.07;3.35;;;;;;;;;;5078906;28;20542;-60
2023/05/19 08:12:37;;;;;;;5.20;2.88;;;;;;;;;;5077657;28;20594;-61
2023/05/19 08:15:04;;;;;;;7.72;2.85;;;;;;;;;;5078360;28;20295;-60
2023/05/19 08:17:30;;;;;;;5.32;2.70;;;;;;;;;;5078804;28;20460;-61
2023/05/19 08:19:59;;;;;;;12.70;2.97;;;;;;;;;;5078879;28;20414;-59
2023/05/19 08:22:25;;;;;;;7.82;2.70;;;;;;;;;;5077471;28;20209;-60
2023/05/19 08:24:51;;;;;;;4.82;2.67;;;;;;;;;;5077887;28;20279;-61
2023/05/19 08:27:18;;;;;;;5.45;3.00;;;;;;;;;;5077772;28;20299;-60
2023/05/19 08:29:44;;;;;;;5.55;2.70;;;;;;;;;;5078045;28;20213;-61
2023/05/19 08:32:10;;;;;;;8.95;3.17;;;;;;;;;;5077773;28;20204;-61
2023/05/19 08:34:36;;;;;;;6.78;2.63;;;;;;;;;;5076481;28;20238;-61
2023/05/19 08:37:04;;;;;;;6.32;2.92;;;;;;;;;;5076141;28;20232;-61
2023/05/19 08:39:33;;;;;;;3.30;2.75;;;;;;;;;;5076646;28;20212;-62
2023/05/19 08:41:59;;;;;;;10.25;2.90;;;;;;;;;;5074409;28;20285;-62
2023/05/19 08:44:26;;;;;;;6.78;3.03;;;;;;;;;;5075438;28;20211;-62
2023/05/19 08:46:54;;;;;;;8.80;3.03;;;;;;;;;;5073983;28;20218;-60
2023/05/19 08:49:22;;;;;;;7.90;2.67;;;;;;;;;;5074021;28;20221;-59
2023/05/19 08:51:51;;;;;;;5.88;2.72;;;;;;;;;;5075122;28;20208;-60
2023/05/19 08:54:21;;;;;;;6.32;2.90;;;;;;;;;;5075739;28;20481;-61
2023/05/19 08:56:47;;;;;;;6.75;2.67;;;;;;;;;;5077491;28;20255;-62
2023/05/19 08:59:14;;;;;;;6.57;2.70;;;;;;;;;;5077024;28;20219;-61
2023/05/19 09:01:42;;;;;;;9.05;2.88;;;;;;;;;;5077015;28;20412;-61
2023/05/19 09:04:08;;;;;;;10.18;2.92;;;;;;;;;;5076687;28;20220;-60
2023/05/19 09:06:34;;;;;;;10.15;3.17;;;;;;;;;;5076614;28;20209;-61
2023/05/19 09:09:02;;;;;;;5.93;3.03;;;;;;;;;;5077035;28;20736;-61
2023/05/19 09:11:29;;;;;;;5.22;2.65;;;;;;;;;;5076868;28;20475;-60
2023/05/19 09:13:56;;;;;;;4.82;2.65;;;;;;;;;;5077680;28;20235;-60
2023/05/19 09:16:23;;;;;;;7.15;2.95;;;;;;;;;;5078354;28;20212;-60
2023/05/19 09:18:55;;;;;;;5.28;3.08;;;;;;;;;;5077125;28;20232;-61
2023/05/19 09:21:26;;;;;;;10.75;2.90;;;;;;;;;;5076890;28;20209;-61
2023/05/19 09:23:54;;;;;;;6.43;2.58;;;;;;;;;;5076526;28;20207;-60
2023/05/19 09:26:22;;;;;;;7.60;2.88;;;;;;;;;;5076225;28;20240;-61
2023/05/19 09:28:49;;;;;;;5.78;3.17;;;;;;;;;;5076248;28;20407;-62
2023/05/19 09:31:16;;;;;;;4.72;2.83;;;;;;;;;;5076391;28;20472;-61
2023/05/19 09:33:42;;;;;;;4.88;2.67;;;;;;;;;;5076758;28;20208;-61
2023/05/19 09:36:09;;;;;;;4.78;2.80;;;;;;;;;;5077275;28;20476;-61
2023/05/19 09:38:36;;;;;;;8.00;3.25;;;;;;;;;;5076584;28;20243;-61
2023/05/19 09:41:02;;;;;;;4.97;2.85;;;;;;;;;;5077067;28;20247;-61
2023/05/19 09:43:29;;;;;;;6.53;2.78;;;;;;;;;;5076931;28;20520;-61
2023/05/19 09:46:00;;;;;;;6.38;3.10;;;;;;;;;;5076481;28;20510;-61
2023/05/19 09:48:27;;;;;;;5.85;3.15;;;;;;;;;;5076632;28;20208;-61
2023/05/19 09:50:53;;;;;;;6.93;3.03;;;;;;;;;;5076344;28;20218;-62
2023/05/19 09:53:20;;;;;;;4.97;2.88;;;;;;;;;;5076636;28;20303;-60
2023/05/19 09:55:47;;;;;;;4.95;2.53;;;;;;;;;;5077664;28;20216;-60
2023/05/19 09:58:16;;;;;;;7.68;2.90;;;;;;;;;;5076888;28;21097;-60
2023/05/19 10:00:42;;;;;;;4.25;2.70;;;;;;;;;;5077009;28;20388;-60
2023/05/19 10:03:10;;;;;;;2.83;2.60;;;;;;;;;;5076341;28;20220;-60
2023/05/19 10:05:37;;;;;;;4.53;2.97;;;;;;;;;;5076781;28;20216;-61
2023/05/19 10:08:05;;;;;;;6.78;3.03;;;;;;;;;;5077278;28;20543;-60
2023/05/19 10:10:33;;;;;;;4.82;2.85;;;;;;;;;;5069421;28;20525;-60
2023/05/19 10:12:59;;;;;;;4.65;2.83;;;;;;;;;;5076804;28;20219;-63
2023/05/19 10:15:26;;;;;;;7.95;2.90;;;;;;;;;;5076213;28;20547;-60
2023/05/19 10:17:52;;;;;;;8.30;2.78;;;;;;;;;;5076301;28;20228;-60
2023/05/19 10:20:20;;;;;;;7.22;2.88;;;;;;;;;;5077043;28;20212;-60
2023/05/19 10:22:47;;;;;;;4.32;2.90;;;;;;;;;;5076279;28;20258;-60
2023/05/19 10:25:15;;;;;;;3.72;2.30;;;;;;;;;;5077284;28;20269;-60
2023/05/19 10:27:43;;;;;;;5.78;2.97;;;;;;;;;;5070868;28;20212;-59
2023/05/19 10:30:12;;;;;;;5.10;2.60;;;;;;;;;;5076889;28;20528;-60
2023/05/19 10:32:39;;;;;;;4.82;2.65;;;;;;;;;;5076375;28;20219;-60
2023/05/19 10:35:16;;;;;;;4.07;2.38;;;;;;;;;;5076319;28;20524;-61
2023/05/19 10:37:46;;;;;;;4.70;3.08;;;;;;;;;;5062950;28;20250;-60
2023/05/19 10:40:18;;;;;;;4.43;2.80;;;;;;;;;;5077171;28;20519;-60
2023/05/19 10:42:51;;;;;;;5.35;2.70;;;;;;;;;;5076983;28;20218;-60
2023/05/19 10:45:19;;;;;;;2.88;2.50;;;;;;;;;;5078104;28;20219;-60
2023/05/19 10:47:46;;;;;;;5.85;2.67;;;;;;;;;;5082981;28;20209;-60
2023/05/19 10:50:12;;;;;;;4.55;2.67;;;;;;;;;;5083071;28;20215;-61
2023/05/19 10:52:39;;;;;;;4.32;2.22;;;;;;;;;;5083030;28;20242;-61
2023/05/19 10:55:14;;;;;;;2.70;2.45;;;;;;;;;;5083341;28;20208;-60
2023/05/19 10:57:52;;;;;;;6.22;3.00;;;;;;;;;;5071933;28;20216;-60
2023/05/19 11:00:27;;;;;;;3.88;2.40;;;;;;;;;;5081957;28;20219;-60
2023/05/19 11:02:55;;;;;;;6.30;2.25;;;;;;;;;;5082855;28;20207;-60
2023/05/19 11:05:27;;;;;;;2.75;2.42;;;;;;;;;;5082222;28;20211;-60
2023/05/19 11:07:55;;;;;;;6.32;2.97;;;;;;;;;;5069429;28;20216;-60
2023/05/19 11:10:24;;;;;;;3.92;2.58;;;;;;;;;;5082415;28;20218;-60
2023/05/19 11:12:50;;;;;;;8.07;2.78;;;;;;;;;;5081429;28;20239;-60
2023/05/19 11:15:17;;;;;;;4.97;2.70;;;;;;;;;;5081614;28;20220;-60
2023/05/19 11:17:47;;;;;;;4.18;2.50;;;;;;;;;;5082534;28;20208;-60
2023/05/19 11:20:21;;;;;;;2.85;2.10;;;;;;;;;;5081778;28;20212;-61
2023/05/19 11:23:03;;;;;;;4.18;2.28;;;;;;;;;;5081990;28;20277;-60
2023/05/19 11:25:42;;;;;;;5.32;2.67;;;;;;;;;;5063894;28;20300;-60
2023/05/19 11:28:08;;;;;;;12.02;3.08;;;;;;;;;;5080970;28;20230;-60
2023/05/19 11:30:34;;;;;;;4.40;2.35;;;;;;;;;;5081628;28;20212;-61
2023/05/19 11:33:01;;;;;;;3.08;2.60;;;;;;;;;;5081614;28;20216;-60
2023/05/19 11:35:28;;;;;;;5.07;3.20;;;;;;;;;;5081769;28;20212;-61
2023/05/19 11:37:54;;;;;;;8.55;3.72;;;;;;;;;;5081176;28;20216;-62
2023/05/19 11:40:21;;;;;;;5.80;4.35;;;;;;;;;;5081144;28;20212;-62
2023/05/19 11:42:48;;;;;;;5.57;3.60;;;;;;;;;;5081973;28;20277;-62
2023/05/19 11:45:15;;;;;;;4.57;2.78;;;;;;;;;;5081240;28;20427;-62
2023/05/19 11:47:41;;;;;;;3.13;2.20;;;;;;;;;;5081787;28;20251;-62
2023/05/19 11:50:11;;;;;;;3.15;2.60;;;;;;;;;;5081036;28;20608;-62
2023/05/19 11:52:37;;;;;;;7.03;2.90;;;;;;;;;;5081531;28;20276;-62
2023/05/19 11:55:04;;;;;;;4.07;3.10;;;;;;;;;;5082321;28;20212;-62
2023/05/19 11:57:30;;;;;;;4.75;2.25;;;;;;;;;;5079602;28;20216;-62
2023/05/19 12:00:01;;;;;;;8.20;2.97;;;;;;;;;;5078391;28;20297;-62
2023/05/19 12:02:29;;;;;;;5.68;2.70;;;;;;;;;;5078810;28;20212;-60
2023/05/19 12:04:55;;;;;;;4.43;2.83;;;;;;;;;;5078602;28;20220;-60
2023/05/19 12:07:22;;;;;;;7.47;2.78;;;;;;;;;;5079148;28;20216;-60
2023/05/19 12:09:49;;;;;;;3.00;2.30;;;;;;;;;;5078398;28;20271;-60
2023/05/19 12:12:16;;;;;;;6.35;2.67;;;;;;;;;;5078890;28;20300;-61
2023/05/19 12:14:42;;;;;;;5.50;3.45;;;;;;;;;;5078230;28;20426;-61
2023/05/19 12:17:13;;;;;;;19.30;11.25;;;;;;;;;;5079612;28;20315;-60
2023/05/19 12:19:40;;;;;;;3.80;3.35;;;;;;;;;;5078607;28;20681;-60
2023/05/19 12:22:06;;;;;;;31.98;10.15;;;;;;;;;;5070567;28;20231;-60
2023/05/19 12:24:33;;;;;;;39.03;12.95;;;;;;;;;;5079458;28;20464;-60
2023/05/19 12:27:04;;;;;;;58.45;17.17;;;;;;;;;;5079123;28;20223;-59
2023/05/19 12:29:31;;;;;;;49.28;15.52;;;;;;;;;;5078539;28;20275;-61
2023/05/19 12:31:57;;;;;;;18.13;6.05;;;;;;;;;;5078148;28;20212;-60
2023/05/19 12:34:25;;;;;;;6.15;3.20;;;;;;;;;;5078509;28;20548;-61
2023/05/19 12:36:51;;;;;;;6.75;2.95;;;;;;;;;;5078623;28;20212;-61
2023/05/19 12:39:17;;;;;;;6.28;3.05;;;;;;;;;;5077973;28;20243;-61
2023/05/19 12:41:44;;;;;;;4.82;3.20;;;;;;;;;;5078417;28;20270;-60
2023/05/19 12:44:14;;;;;;;6.63;2.90;;;;;;;;;;5078755;28;20204;-61
2023/05/19 12:46:41;;;;;;;10.52;3.67;;;;;;;;;;5078488;28;20211;-62
2023/05/19 12:49:07;;;;;;;7.32;3.25;;;;;;;;;;5078400;28;20208;-60
2023/05/19 12:51:36;;;;;;;7.15;3.42;;;;;;;;;;5077714;28;20219;-60
2023/05/19 12:54:03;;;;;;;6.22;3.05;;;;;;;;;;5079019;28;20212;-60
2023/05/19 12:56:29;;;;;;;9.50;3.80;;;;;;;;;;5078882;28;20269;-61
2023/05/19 12:58:55;;;;;;;7.68;3.70;;;;;;;;;;5077924;28;20232;-60
2023/05/19 13:01:22;;;;;;;9.68;3.45;;;;;;;;;;5077104;28;20216;-61
2023/05/19 13:03:49;;;;;;;9.15;3.33;;;;;;;;;;5077162;28;20212;-61
2023/05/19 13:06:15;;;;;;;5.85;2.80;;;;;;;;;;5077197;28;20247;-60
2023/05/19 13:08:42;;;;;;;7.47;3.10;;;;;;;;;;5077888;28;20212;-61
2023/05/19 13:11:09;;;;;;;5.50;3.33;;;;;;;;;;5077932;28;20207;-61
2023/05/19 13:13:35;;;;;;;6.35;3.15;;;;;;;;;;5077631;28;20451;-60
2023/05/19 13:16:01;;;;;;;5.28;3.15;;;;;;;;;;5076656;28;20444;-60
2023/05/19 13:18:30;;;;;;;8.88;3.83;;;;;;;;;;5077082;28;20255;-60
2023/05/19 13:20:57;;;;;;;7.15;2.90;;;;;;;;;;5077062;28;20688;-61
2023/05/19 13:23:24;;;;;;;7.07;3.13;;;;;;;;;;5077031;28;20200;-61
2023/05/19 13:25:52;;;;;;;5.30;3.10;;;;;;;;;;5076604;28;20261;-61
2023/05/19 13:28:18;;;;;;;5.72;2.90;;;;;;;;;;5076222;28;20235;-62
2023/05/19 13:30:45;;;;;;;9.10;3.28;;;;;;;;;;5076925;28;20546;-62
2023/05/19 13:33:11;;;;;;;4.85;3.30;;;;;;;;;;5075985;28;20212;-62
2023/05/19 13:35:37;;;;;;;7.82;2.90;;;;;;;;;;5077015;28;20431;-63
2023/05/19 13:38:04;;;;;;;5.18;3.05;;;;;;;;;;5077190;28;20212;-62
2023/05/19 13:40:31;;;;;;;6.57;3.28;;;;;;;;;;5076135;28;20238;-62
2023/05/19 13:42:59;;;;;;;3.58;3.22;;;;;;;;;;5076415;28;20275;-61
2023/05/19 13:45:25;;;;;;;7.20;3.15;;;;;;;;;;5076428;28;20287;-62
2023/05/19 13:47:51;;;;;;;6.20;3.13;;;;;;;;;;5076593;28;20554;-62
2023/05/19 13:50:18;;;;;;;5.60;3.13;;;;;;;;;;5076370;28;20565;-62
2023/05/19 13:52:44;;;;;;;5.28;3.00;;;;;;;;;;5076267;28;20209;-62
2023/05/19 13:55:10;;;;;;;5.68;2.90;;;;;;;;;;5076343;28;20219;-62
2023/05/19 13:57:37;;;;;;;7.35;3.33;;;;;;;;;;5076762;28;20403;-62
2023/05/19 14:00:05;;;;;;;7.15;3.00;;;;;;;;;;5076328;28;20560;-62
2023/05/19 14:02:31;;;;;;;5.05;3.03;;;;;;;;;;5076711;28;20212;-61
2023/05/19 14:04:58;;;;;;;7.53;2.90;;;;;;;;;;5076112;28;20242;-61
2023/05/19 14:07:25;;;;;;;9.20;2.78;;;;;;;;;;5077532;28;20239;-60
2023/05/19 14:09:51;;;;;;;5.35;2.70;;;;;;;;;;5076432;28;20216;-61
2023/05/19 14:12:17;;;;;;;5.93;2.85;;;;;;;;;;5076617;28;20212;-61
2023/05/19 14:14:44;;;;;;;7.38;2.92;;;;;;;;;;5075928;28;20291;-61
2023/05/19 14:17:11;;;;;;;5.78;3.20;;;;;;;;;;5069471;28;20204;-61
2023/05/19 14:19:37;;;;;;;6.88;2.88;;;;;;;;;;5075980;28;20232;-61
2023/05/19 14:22:04;;;;;;;8.45;3.05;;;;;;;;;;5075120;28;20216;-61
2023/05/19 14:24:30;;;;;;;3.38;2.83;;;;;;;;;;5076770;28;20279;-61
2023/05/19 14:26:56;;;;;;;5.50;2.75;;;;;;;;;;5076192;28;20216;-62
2023/05/19 14:29:23;;;;;;;8.25;3.42;;;;;;;;;;5076464;28;20247;-63
2023/05/19 14:31:50;;;;;;;7.03;2.75;;;;;;;;;;5076669;28;20212;-61
2023/05/19 14:34:19;;;;;;;4.18;2.60;;;;;;;;;;5076198;28;20384;-61
2023/05/19 14:36:46;;;;;;;7.22;3.20;;;;;;;;;;5065728;28;20216;-62
2023/05/19 14:39:12;;;;;;;2.88;2.53;;;;;;;;;;5076093;28;20470;-62
2023/05/19 14:41:39;;;;;;;10.88;3.15;;;;;;;;;;5076606;28;20240;-61
2023/05/19 14:44:05;;;;;;;4.55;3.00;;;;;;;;;;5075964;28;20244;-62